createdAt,value
2022-12-09T00:01:23.282Z,51.33
2022-12-09T00:04:25.873Z,48.13
2022-12-09T00:07:28.457Z,49.37
2022-12-09T00:10:30.356Z,48.17
2022-12-09T00:13:32.759Z,43.70
2022-12-09T00:16:34.825Z,46.77
2022-12-09T00:19:37.264Z,46.43
2022-12-09T00:22:39.348Z,46.93
2022-12-09T00:25:41.675Z,51.37
2022-12-09T00:28:44.253Z,51.60
2022-12-09T00:31:46.610Z,48.23
2022-12-09T00:34:49.145Z,52.13
2022-12-09T00:37:51.402Z,53.80
2022-12-09T00:40:53.389Z,46.47
2022-12-09T00:43:56.001Z,49.70
2022-12-09T00:46:58.037Z,51.23
2022-12-09T00:50:00.918Z,46.40
2022-12-09T00:53:02.973Z,46.40
2022-12-09T00:56:06.078Z,43.37
2022-12-09T00:59:08.439Z,44.00
2022-12-09T01:02:10.889Z,48.37
2022-12-09T01:05:13.032Z,45.13
2022-12-09T01:08:15.750Z,44.90
2022-12-09T01:11:27.855Z,42.00
2022-12-09T01:14:30.154Z,40.70
2022-12-09T01:17:32.570Z,39.83
2022-12-09T01:20:35.380Z,37.27
2022-12-09T01:23:37.697Z,42.50
2022-12-09T01:26:40.207Z,35.77
2022-12-09T01:29:42.410Z,39.07
2022-12-09T01:32:44.818Z,40.37
2022-12-09T01:35:46.804Z,37.37
2022-12-09T01:38:49.469Z,36.23
2022-12-09T01:41:52.032Z,33.90
2022-12-09T01:45:22.242Z,34.33
2022-12-09T01:48:27.959Z,32.40
2022-12-09T01:51:31.054Z,30.17
2022-12-09T01:54:34.027Z,32.50
2022-12-09T01:57:37.262Z,30.90
2022-12-09T02:00:39.361Z,33.60
2022-12-09T02:03:41.832Z,33.27
2022-12-09T02:06:44.182Z,33.10
2022-12-09T02:09:46.808Z,32.47
2022-12-09T02:13:02.234Z,33.13
2022-12-09T02:16:09.897Z,36.37
2022-12-09T02:19:23.959Z,32.10
2022-12-09T02:22:35.311Z,31.27
2022-12-09T02:25:57.643Z,30.20
2022-12-09T02:29:09.072Z,33.10
2022-12-09T02:32:49.948Z,33.80
2022-12-09T02:36:08.165Z,35.97
2022-12-09T02:39:10.575Z,43.67
2022-12-09T02:42:17.598Z,38.73
2022-12-09T02:45:21.467Z,39.07
2022-12-09T02:48:29.872Z,38.87
2022-12-09T02:51:35.576Z,43.70
2022-12-09T02:54:39.662Z,35.43
2022-12-09T02:57:42.704Z,44.37
2022-12-09T03:00:45.228Z,36.17
2022-12-09T03:03:47.551Z,28.13
2022-12-09T03:06:55.462Z,33.00
2022-12-09T03:10:10.727Z,31.13
2022-12-09T03:13:39.836Z,33.23
2022-12-09T03:16:44.814Z,34.17
2022-12-09T03:19:54.974Z,35.53
2022-12-09T03:23:00.783Z,37.90
2022-12-09T03:26:05.585Z,34.23
2022-12-09T03:29:13.291Z,39.50
2022-12-09T03:32:20.535Z,38.80
2022-12-09T03:35:29.830Z,36.67
2022-12-09T03:38:36.731Z,37.17
2022-12-09T03:41:45.820Z,35.40
2022-12-09T03:45:05.642Z,37.50
2022-12-09T03:48:08.481Z,37.87
2022-12-09T03:51:21.601Z,35.70
2022-12-09T03:54:32.396Z,36.37
2022-12-09T03:57:38.079Z,33.23
2022-12-09T04:00:40.130Z,33.97
2022-12-09T04:03:46.209Z,34.10
2022-12-09T04:06:52.345Z,35.80
2022-12-09T04:09:54.765Z,38.33
2022-12-09T04:12:56.673Z,37.40
2022-12-09T04:15:59.338Z,36.03
2022-12-09T04:19:01.721Z,38.97
2022-12-09T04:22:04.855Z,36.27
2022-12-09T04:25:07.599Z,35.47
2022-12-09T04:28:10.277Z,35.70
2022-12-09T04:31:14.187Z,38.63
2022-12-09T04:34:16.848Z,37.57
2022-12-09T04:37:18.837Z,34.20
2022-12-09T04:40:24.020Z,35.90
2022-12-09T04:43:27.498Z,39.40
2022-12-09T04:46:29.806Z,37.23
2022-12-09T04:49:32.316Z,35.00
2022-12-09T04:52:35.359Z,37.87
2022-12-09T04:55:37.277Z,37.00
2022-12-09T04:58:39.625Z,35.43
2022-12-09T05:01:44.426Z,36.70
2022-12-09T05:04:46.983Z,37.60
2022-12-09T05:07:49.318Z,35.53
2022-12-09T05:10:51.910Z,42.13
2022-12-09T05:13:54.643Z,45.30
2022-12-09T05:16:56.983Z,37.10
2022-12-09T05:19:59.217Z,34.80
2022-12-09T05:23:07.481Z,36.07
2022-12-09T05:26:13.209Z,38.73
2022-12-09T05:29:20.801Z,36.27
2022-12-09T05:32:24.895Z,37.20
2022-12-09T05:35:27.876Z,40.20
2022-12-09T05:38:30.740Z,38.57
2022-12-09T05:41:33.160Z,35.43
2022-12-09T05:44:35.529Z,37.47
2022-12-09T05:47:38.119Z,38.57
2022-12-09T05:50:40.610Z,36.30
2022-12-09T05:53:43.332Z,40.13
2022-12-09T05:56:48.361Z,38.27
2022-12-09T05:59:51.355Z,35.63
2022-12-09T06:02:53.534Z,36.60
2022-12-09T06:05:56.095Z,35.47
2022-12-09T06:09:00.687Z,39.07
2022-12-09T06:12:03.759Z,39.43
2022-12-09T06:15:09.817Z,47.73
2022-12-09T06:18:13.150Z,50.83
2022-12-09T06:21:16.428Z,60.80
2022-12-09T06:24:18.871Z,78.47
2022-12-09T06:27:21.220Z,47.83
2022-12-09T06:30:23.474Z,55.50
2022-12-09T06:33:53.098Z,41.40
2022-12-09T06:36:48.031Z,38.90
2022-12-09T06:39:50.326Z,39.20
2022-12-09T06:42:53.125Z,41.90
2022-12-09T06:45:55.364Z,47.13
2022-12-09T06:48:58.099Z,47.73
2022-12-09T06:52:00.602Z,50.00
2022-12-09T06:55:03.721Z,43.10
2022-12-09T06:58:06.010Z,44.17
2022-12-09T07:01:20.805Z,47.27
2022-12-09T07:04:23.254Z,55.53
2022-12-09T07:07:25.858Z,40.07
2022-12-09T07:10:28.386Z,45.40
2022-12-09T07:13:30.812Z,48.03
2022-12-09T07:16:33.007Z,47.47
2022-12-09T07:19:35.576Z,46.17
2022-12-09T07:22:37.891Z,44.13
2022-12-09T07:25:40.228Z,47.23
2022-12-09T07:28:43.585Z,44.77
2022-12-09T07:31:47.681Z,43.77
2022-12-09T07:34:50.205Z,42.57
2022-12-09T07:37:52.909Z,45.50
2022-12-09T07:40:55.025Z,45.07
2022-12-09T07:43:57.939Z,46.70
2022-12-09T07:47:00.337Z,62.70
2022-12-09T07:50:06.623Z,46.37
2022-12-09T07:53:09.900Z,44.73
2022-12-09T07:56:14.921Z,54.10
2022-12-09T07:59:17.684Z,65.43
2022-12-09T08:02:20.204Z,81.73
2022-12-09T08:05:22.757Z,57.60
2022-12-09T08:08:25.530Z,69.03
2022-12-09T08:11:30.318Z,52.63
2022-12-09T08:14:32.947Z,49.23
2022-12-09T08:17:35.059Z,50.53
2022-12-09T08:20:37.888Z,49.03
2022-12-09T08:23:40.482Z,51.10
2022-12-09T08:26:43.427Z,52.93
2022-12-09T08:29:46.119Z,72.70
2022-12-09T08:32:48.621Z,62.73
2022-12-09T08:35:51.219Z,46.47
2022-12-09T08:38:53.811Z,47.60
2022-12-09T08:41:55.888Z,47.63
2022-12-09T08:45:01.992Z,46.00
2022-12-09T08:48:06.194Z,50.50
2022-12-09T08:51:10.709Z,51.93
2022-12-09T08:54:12.739Z,50.97
2022-12-09T08:57:15.467Z,56.60
2022-12-09T09:00:18.931Z,49.13
2022-12-09T09:03:21.813Z,48.70
2022-12-09T09:06:24.195Z,53.80
2022-12-09T09:09:26.889Z,50.47
2022-12-09T09:12:29.214Z,51.10
2022-12-09T09:15:31.520Z,50.97
2022-12-09T09:18:34.315Z,53.43
2022-12-09T09:21:37.010Z,51.50
2022-12-09T09:24:39.693Z,48.90
2022-12-09T09:27:42.132Z,52.97
2022-12-09T09:30:44.720Z,56.97
2022-12-09T09:33:47.958Z,52.77
2022-12-09T09:36:51.336Z,54.07
2022-12-09T09:39:54.064Z,52.00
2022-12-09T09:42:58.642Z,51.20
2022-12-09T09:46:02.025Z,55.70
2022-12-09T09:49:10.705Z,48.20
2022-12-09T09:52:18.350Z,56.83
2022-12-09T09:55:39.469Z,54.97
2022-12-09T09:58:52.091Z,50.83
2022-12-09T10:02:13.062Z,58.97
2022-12-09T10:05:25.497Z,59.13
2022-12-09T10:09:04.575Z,56.13
2022-12-09T10:12:20.312Z,46.17
2022-12-09T10:15:31.460Z,43.93
2022-12-09T10:18:49.888Z,44.53
2022-12-09T10:21:54.717Z,47.67
2022-12-09T10:25:00.148Z,44.77
2022-12-09T10:28:18.130Z,36.13
2022-12-09T10:31:20.508Z,47.90
2022-12-09T10:34:22.990Z,43.93
2022-12-09T10:37:35.213Z,55.17
2022-12-09T10:40:46.935Z,43.67
2022-12-09T10:43:49.378Z,44.30
2022-12-09T10:47:04.493Z,43.37
2022-12-09T10:50:12.809Z,54.03
2022-12-09T10:53:16.626Z,51.23
2022-12-09T10:56:31.595Z,63.20
2022-12-09T10:59:35.366Z,77.63
2022-12-09T11:02:50.701Z,96.17
2022-12-09T11:06:16.447Z,63.10
2022-12-09T11:09:34.951Z,73.93
2022-12-09T11:12:41.277Z,64.70
2022-12-09T11:15:49.693Z,77.97
2022-12-09T11:18:52.237Z,65.40
2022-12-09T11:22:23.997Z,108.87
2022-12-09T11:25:31.823Z,104.23
2022-12-09T11:28:37.701Z,76.43
2022-12-09T11:31:42.078Z,58.97
2022-12-09T11:34:46.441Z,57.63
2022-12-09T11:37:49.126Z,55.93
2022-12-09T11:41:44.890Z,55.97
2022-12-09T11:45:05.309Z,59.00
2022-12-09T11:48:29.824Z,56.13
2022-12-09T11:51:40.663Z,59.93
2022-12-09T11:54:49.722Z,57.93
2022-12-09T11:57:56.881Z,57.03
2022-12-09T12:01:16.120Z,54.77
2022-12-09T12:05:01.667Z,51.50
2022-12-09T12:08:20.841Z,49.43
2022-12-09T12:11:29.763Z,49.13
2022-12-09T12:14:35.622Z,55.80
2022-12-09T12:17:51.938Z,55.73
2022-12-09T12:21:20.630Z,58.83
2022-12-09T12:24:28.680Z,53.23
2022-12-09T12:27:47.510Z,88.83
2022-12-09T12:30:59.428Z,66.53
2022-12-09T12:34:24.922Z,56.87
2022-12-09T12:37:50.246Z,55.60
2022-12-09T12:41:08.080Z,66.60
2022-12-09T12:45:00.576Z,62.50
2022-12-09T12:48:16.046Z,59.60
2022-12-09T12:51:25.775Z,57.87
2022-12-09T12:54:45.189Z,59.40
2022-12-09T12:57:56.323Z,62.93
2022-12-09T13:01:19.671Z,59.60
2022-12-09T13:04:49.822Z,56.67
2022-12-09T13:07:59.240Z,54.57
2022-12-09T13:11:13.779Z,90.07
2022-12-09T13:14:21.900Z,65.17
2022-12-09T13:17:28.615Z,59.90
2022-12-09T13:20:40.930Z,55.60
2022-12-09T13:23:48.697Z,105.37
2022-12-09T13:27:03.485Z,87.77
2022-12-09T13:30:15.537Z,55.80
2022-12-09T13:33:36.295Z,54.93
2022-12-09T13:36:41.923Z,51.17
2022-12-09T13:39:50.013Z,47.73
2022-12-09T13:43:16.589Z,75.10
2022-12-09T13:46:28.033Z,81.97
2022-12-09T13:49:30.199Z,66.33
2022-12-09T13:52:51.814Z,47.90
2022-12-09T13:56:22.131Z,47.90
2022-12-09T13:59:38.019Z,46.90
2022-12-09T14:02:53.631Z,63.73
2022-12-09T14:05:58.828Z,49.90
2022-12-09T14:09:06.402Z,46.60
2022-12-09T14:12:26.538Z,58.93
2022-12-09T14:15:36.798Z,54.53
2022-12-09T14:18:40.250Z,73.67
2022-12-09T14:21:42.307Z,56.73
2022-12-09T14:24:55.906Z,45.73
2022-12-09T14:28:09.926Z,70.07
2022-12-09T14:31:12.266Z,40.93
2022-12-09T14:34:25.245Z,35.67
2022-12-09T14:37:34.368Z,91.93
2022-12-09T14:41:03.312Z,75.63
2022-12-09T14:44:13.574Z,53.23
2022-12-09T14:47:24.893Z,55.63
2022-12-09T14:50:28.446Z,39.00
2022-12-09T14:53:34.299Z,39.93
2022-12-09T14:56:36.648Z,38.50
2022-12-09T14:59:49.252Z,40.00
2022-12-09T15:03:23.143Z,35.27
2022-12-09T15:06:20.484Z,31.50
2022-12-09T15:09:23.321Z,39.27
2022-12-09T15:12:43.723Z,33.27
2022-12-09T15:15:47.219Z,40.90
2022-12-09T15:18:50.478Z,40.33
2022-12-09T15:21:54.644Z,35.90
2022-12-09T15:24:57.090Z,38.50
2022-12-09T15:28:11.472Z,38.27
2022-12-09T15:31:19.806Z,40.60
2022-12-09T15:34:26.557Z,39.83
2022-12-09T15:37:29.145Z,42.33
2022-12-09T15:40:34.110Z,39.60
2022-12-09T15:43:36.817Z,46.90
2022-12-09T15:46:43.307Z,46.77
2022-12-09T15:49:52.399Z,49.63
2022-12-09T15:53:03.309Z,73.47
2022-12-09T15:56:17.714Z,44.50
2022-12-09T15:59:28.563Z,54.20
2022-12-09T16:02:34.562Z,59.07
2022-12-09T16:05:41.846Z,58.03
2022-12-09T16:08:45.223Z,56.00
2022-12-09T16:11:53.466Z,55.43
2022-12-09T16:14:55.688Z,51.43
2022-12-09T16:18:01.958Z,52.73
2022-12-09T16:21:15.946Z,56.03
2022-12-09T16:24:18.233Z,68.83
2022-12-09T16:27:23.538Z,52.53
2022-12-09T16:30:28.635Z,67.67
2022-12-09T16:33:37.442Z,91.17
2022-12-09T16:36:54.300Z,74.63
2022-12-09T16:39:58.582Z,60.73
2022-12-09T16:43:16.179Z,68.50
2022-12-09T16:46:40.398Z,80.50
2022-12-09T16:49:46.089Z,49.80
2022-12-09T16:52:48.173Z,54.83
2022-12-09T16:55:53.593Z,81.63
2022-12-09T16:58:55.748Z,78.30
2022-12-09T17:01:58.173Z,73.00
2022-12-09T17:05:03.952Z,70.67
2022-12-09T17:08:06.228Z,87.20
2022-12-09T17:11:08.554Z,72.57
2022-12-09T17:14:10.867Z,92.00
2022-12-09T17:17:12.861Z,82.67
2022-12-09T17:20:15.346Z,85.87
2022-12-09T17:23:17.372Z,67.20
2022-12-09T17:26:20.548Z,63.97
2022-12-09T17:29:22.458Z,57.93
2022-12-09T17:32:25.196Z,69.07
2022-12-09T17:35:27.239Z,68.77
2022-12-09T17:38:29.890Z,94.60
2022-12-09T17:41:31.909Z,80.23
2022-12-09T17:44:34.711Z,67.10
2022-12-09T17:47:36.799Z,70.17
2022-12-09T17:50:39.855Z,81.00
2022-12-09T17:53:43.629Z,76.00
2022-12-09T17:56:46.675Z,55.70
2022-12-09T17:59:48.779Z,68.53
2022-12-09T18:02:51.114Z,63.67
2022-12-09T18:05:56.419Z,48.13
2022-12-09T18:08:58.952Z,49.47
2022-12-09T18:12:00.939Z,44.00
2022-12-09T18:15:03.747Z,56.93
2022-12-09T18:18:05.763Z,55.50
2022-12-09T18:21:15.077Z,54.07
2022-12-09T18:24:18.641Z,77.77
2022-12-09T18:27:21.031Z,104.70
2022-12-09T18:30:23.200Z,72.60
2022-12-09T18:33:26.899Z,83.13
2022-12-09T18:36:31.982Z,81.67
2022-12-09T18:39:34.240Z,94.73
2022-12-09T18:42:36.313Z,78.97
2022-12-09T18:45:38.505Z,72.50
2022-12-09T18:48:40.687Z,69.83
2022-12-09T18:51:45.078Z,79.30
2022-12-09T18:54:47.764Z,68.83
2022-12-09T18:57:49.951Z,60.27
2022-12-09T19:00:51.932Z,66.30
2022-12-09T19:03:55.885Z,61.70
2022-12-09T19:07:00.114Z,74.40
2022-12-09T19:10:02.452Z,90.47
2022-12-09T19:13:04.941Z,79.60
2022-12-09T19:16:07.596Z,75.90
2022-12-09T19:19:15.078Z,79.73
2022-12-09T19:22:17.291Z,62.07
2022-12-09T19:25:19.239Z,71.13
2022-12-09T19:28:21.434Z,57.83
2022-12-09T19:31:26.748Z,50.13
2022-12-09T19:34:30.651Z,53.10
2022-12-09T19:37:32.680Z,56.70
2022-12-09T19:40:36.441Z,55.57
2022-12-09T19:43:38.576Z,50.93
2022-12-09T19:46:57.764Z,55.63
2022-12-09T19:49:59.733Z,60.33
2022-12-09T19:53:01.953Z,62.80
2022-12-09T19:56:07.148Z,59.40
2022-12-09T19:59:10.109Z,76.73
2022-12-09T20:02:13.945Z,66.67
2022-12-09T20:05:17.076Z,59.83
2022-12-09T20:08:19.305Z,68.67
2022-12-09T20:11:24.274Z,67.17
2022-12-09T20:14:26.187Z,62.23
2022-12-09T20:17:28.405Z,64.47
2022-12-09T20:20:30.294Z,63.20
2022-12-09T20:23:33.698Z,62.90
2022-12-09T20:26:44.518Z,68.20
2022-12-09T20:29:48.841Z,66.77
2022-12-09T20:32:50.821Z,70.60
2022-12-09T20:35:52.989Z,69.50
2022-12-09T20:38:57.117Z,72.50
2022-12-09T20:41:59.423Z,72.80
2022-12-09T20:45:01.299Z,65.43
2022-12-09T20:48:04.132Z,65.80
2022-12-09T20:51:16.145Z,74.17
2022-12-09T20:54:18.584Z,70.70
2022-12-09T20:57:20.548Z,85.80
2022-12-09T21:00:23.529Z,77.40
2022-12-09T21:03:25.483Z,80.10
2022-12-09T21:06:33.281Z,75.60
2022-12-09T21:09:35.263Z,81.37
2022-12-09T21:12:37.532Z,75.93
2022-12-09T21:15:39.574Z,77.83
2022-12-09T21:18:43.028Z,76.00
2022-12-09T21:21:46.987Z,87.30
2022-12-09T21:24:49.235Z,81.97
2022-12-09T21:27:51.502Z,84.20
2022-12-09T21:30:53.716Z,93.37
2022-12-09T21:33:57.785Z,146.97
2022-12-09T21:37:00.064Z,90.00
2022-12-09T21:40:02.050Z,87.07
2022-12-09T21:43:04.917Z,86.73
2022-12-09T21:46:10.095Z,83.60
2022-12-09T21:49:14.715Z,78.30
2022-12-09T21:52:16.817Z,80.77
2022-12-09T21:55:18.978Z,107.33
2022-12-09T21:58:21.073Z,103.20
2022-12-09T22:01:28.849Z,92.03
2022-12-09T22:04:30.895Z,119.33
2022-12-09T22:07:34.229Z,105.77
2022-12-09T22:10:37.790Z,92.60
2022-12-09T22:13:40.423Z,86.67
2022-12-09T22:16:44.801Z,98.00
2022-12-09T22:19:52.593Z,93.43
2022-12-09T22:23:08.563Z,90.70
2022-12-09T22:26:14.949Z,90.77
2022-12-09T22:29:17.830Z,85.70
2022-12-09T22:32:20.048Z,89.80
2022-12-09T22:35:22.302Z,86.23
2022-12-09T22:38:24.479Z,87.83
2022-12-09T22:41:28.201Z,95.70
2022-12-09T22:44:30.389Z,91.03
2022-12-09T22:47:32.735Z,97.47
2022-12-09T22:50:36.270Z,82.40
2022-12-09T22:53:38.776Z,87.27
2022-12-09T22:56:43.079Z,91.70
2022-12-09T22:59:45.000Z,99.63
2022-12-09T23:02:47.285Z,96.03
2022-12-09T23:05:49.446Z,92.63
2022-12-09T23:08:52.689Z,88.47
2022-12-09T23:11:54.831Z,100.00
2022-12-09T23:14:57.100Z,94.07
2022-12-09T23:17:59.110Z,98.90
2022-12-09T23:21:07.880Z,92.30
2022-12-09T23:24:20.993Z,113.13
2022-12-09T23:27:26.661Z,100.47
2022-12-09T23:30:28.577Z,102.37
2022-12-09T23:33:30.882Z,89.27
2022-12-09T23:36:38.740Z,99.57
2022-12-09T23:39:41.206Z,88.47
2022-12-09T23:42:43.161Z,88.70
2022-12-09T23:45:45.441Z,94.37
2022-12-09T23:48:49.083Z,89.37
2022-12-09T23:51:51.278Z,80.57
2022-12-09T23:54:53.248Z,98.93
2022-12-09T23:57:55.486Z,100.27
